Kensett, Arkansas
Current Conditions -  °F | °C
As of 7:56 PM on Sunday 21 Dec 2014 (Local Time) from KSRC Reporting Station
Broken Clouds Broken Clouds  
Wind Chill: 45°   Ceiling: 8000
Heat Index: 47°   Visibility: 10mi
Dew Point: 37°   Wind: 5mph
Humidity: 68%   Direction: 140°SE
Pressure: 29.96"   Gusts: NA
Location:  35.23°N, 91.67°W
Report Text: KSRC 220156Z AUTO 14004KT 10SM BKN080 08/03 A2996 RMK AO2 SLP153 T00830028 TSNO
Loading
Personal Weather Stations






























Interactive Weather Map New forecast layout! Learn more

10-Day Weather Forecast

Advertisements
Track Severe Weather on mobile